Rachel — D5CG4 — position and weather

sailwx.info

Track history (hours):
 
Tides and Currents Weather Stations Pressure Air Temp Water Temp Dewpoint Dewpoint Depression Visibility Wind Speed Wind Dir Waves Ship Positions

Rachel

Last reported at 2016-Jun-29 02:24 UTC. Time now 2016-Jul-01 13:34 UTC.
Position N 08°49' W 079°32'.

Length 189 m; draft 11.3 m.

Type: Cargo ship. MMSI: 636015692.

Date/timePositionNaut miles runAvg speedWind from/ knotsBaromVisibWave heightAir tempDewpointWater temp
2016-Jun-29 02:24N 08°49' W 079°32'0 0.0
2016-Jun-29 01:30N 08°49' W 079°32'0 0.0
2016-Jun-29 00:33N 08°49' W 079°32'0 0.0
2016-Jun-28 23:30N 08°49' W 079°32'0 0.0
2016-Jun-28 21:24N 08°49' W 079°32'0 0.0
2016-Jun-28 19:26N 08°49' W 079°32'1 0.5
2016-Jun-28 17:28N 08°50' W 079°31'7 7.3
2016-Jun-28 16:27N 08°57' W 079°34'16 1.4
2016-Jun-28 04:33N 09°07' W 079°47'6 5.8
2016-Jun-28 03:33N 09°11' W 079°51'6 6.1
2016-Jun-28 02:33N 09°15' W 079°55'1 1.3
2016-Jun-28 01:33N 09°16' W 079°55'0 0.4
2016-Jun-28 00:33N 09°17' W 079°55'3 3.0
2016-Jun-27 23:33N 09°20' W 079°55'3 2.7
2016-Jun-27 22:32N 09°22' W 079°56'0 0.0
2016-Jun-27 21:31N 09°22' W 079°56'0 0.0
2016-Jun-27 20:31N 09°22' W 079°56'0 0.0
2016-Jun-27 19:26N 09°22' W 079°56'0 0.0
2016-Jun-27 18:32N 09°22' W 079°56'0 0.0
2016-Jun-27 17:32N 09°22' W 079°56'0 0.0
2016-Jun-27 16:31N 09°22' W 079°56'0 0.0
2016-Jun-27 15:31N 09°22' W 079°56'0 0.0
2016-Jun-27 14:31N 09°22' W 079°56'3 2.7
2016-Jun-27 13:33N 09°25' W 079°55'1 1.4
2016-Jun-27 12:33N 09°25' W 079°56'0 0.0
2016-Jun-27 11:30N 09°25' W 079°56'0 0.0
2016-Jun-27 10:17N 09°25' W 079°56'0 0.0
2016-Jun-27 09:32N 09°25' W 079°56'0 0.0
2016-Jun-27 08:29N 09°25' W 079°56'0 0.0
2016-Jun-27 07:29N 09°25' W 079°56'0 0.0
2016-Jun-27 06:23N 09°25' W 079°56'0 0.1
2016-Jun-27 05:33N 09°25' W 079°56'0 0.0
2016-Jun-27 04:33N 09°25' W 079°56'0 0.0
2016-Jun-27 03:30N 09°25' W 079°56'0 0.0
2016-Jun-27 02:32N 09°25' W 079°56'0 0.0
2016-Jun-27 01:31N 09°25' W 079°56'0 0.0
2016-Jun-27 00:33N 09°25' W 079°56'0 0.0
2016-Jun-26 23:33N 09°25' W 079°56'0 0.0
2016-Jun-26 22:31N 09°25' W 079°56'0 0.0
2016-Jun-26 20:20N 09°25' W 079°56'0 0.1
2016-Jun-26 19:33N 09°25' W 079°56'0 0.0
2016-Jun-26 18:33N 09°25' W 079°56'0 0.0
2016-Jun-26 17:24N 09°25' W 079°56'0 0.0
2016-Jun-26 16:29N 09°25' W 079°56'0 0.0
2016-Jun-26 15:33N 09°25' W 079°57'0 0.1
2016-Jun-26 14:33N 09°25' W 079°56'0 0.0
2016-Jun-26 13:24N 09°25' W 079°56'0 0.0
2016-Jun-26 12:33N 09°25' W 079°56'0 0.0
2016-Jun-26 11:30N 09°25' W 079°56'0 0.0
2016-Jun-26 10:27N 09°25' W 079°56'0 0.0
2016-Jun-26 09:30N 09°25' W 079°56'0 0.0
2016-Jun-26 08:32N 09°25' W 079°56'0 0.0
2016-Jun-26 07:30N 09°25' W 079°56'0 0.0
2016-Jun-26 06:33N 09°25' W 079°56'0 0.0
2016-Jun-26 05:32N 09°25' W 079°56'0 0.0
2016-Jun-26 04:33N 09°25' W 079°56'0 0.1
2016-Jun-26 03:32N 09°25' W 079°56'0 0.1
2016-Jun-26 02:30N 09°25' W 079°56'0 0.0
2016-Jun-26 01:32N 09°25' W 079°56'0 0.0
2016-Jun-26 00:32N 09°25' W 079°56'0 0.0
2016-Jun-25 23:32N 09°25' W 079°56'0 0.0
2016-Jun-25 22:33N 09°25' W 079°56'0 0.0
2016-Jun-25 21:32N 09°25' W 079°56'0 0.0
2016-Jun-25 20:32N 09°25' W 079°56'0 0.0
2016-Jun-25 19:30N 09°25' W 079°56'0 0.0
2016-Jun-25 18:30N 09°25' W 079°56'0 0.0
2016-Jun-25 17:24N 09°25' W 079°56'2 2.6
2016-Jun-25 16:34N 09°27' W 079°55'9 9.0
2016-Jun-25 15:33N 09°35' W 079°53'1110.9
2016-Jun-25 14:33N 09°46' W 079°53'  
2016-Jun-19 21:32N 29°46' W 090°02'10 9.8
2016-Jun-19 20:33N 29°53' W 089°54'9 8.9
2016-Jun-19 19:33N 29°55' W 090°04'8 8.1
2016-Jun-19 18:31N 29°57' W 090°13'13 0.9
2016-Jun-19 03:15N 30°00' W 090°28'  
Track history (hours):
 
Tides and Currents Weather Stations Pressure Air Temp Water Temp Dewpoint Dewpoint Depression Visibility Wind Speed Wind Dir Waves Ship Positions

Rachel

Last reported at 2016-Jun-29 02:24 UTC. Time now 2016-Jul-01 13:34 UTC.
Position N 08°49' W 079°32'.

Length 189 m; draft 11.3 m.

Type: Cargo ship. MMSI: 636015692.

Date/timePositionNaut miles runAvg speedWind from/ knotsBaromVisibWave heightAir tempDewpointWater temp
2016-Jun-29 02:24N 08°49' W 079°32'0 0.0
2016-Jun-29 01:30N 08°49' W 079°32'0 0.0
2016-Jun-29 00:33N 08°49' W 079°32'0 0.0
2016-Jun-28 23:30N 08°49' W 079°32'0 0.0
2016-Jun-28 21:24N 08°49' W 079°32'0 0.0
2016-Jun-28 19:26N 08°49' W 079°32'1 0.5
2016-Jun-28 17:28N 08°50' W 079°31'7 7.3
2016-Jun-28 16:27N 08°57' W 079°34'16 1.4
2016-Jun-28 04:33N 09°07' W 079°47'6 5.8
2016-Jun-28 03:33N 09°11' W 079°51'6 6.1
2016-Jun-28 02:33N 09°15' W 079°55'1 1.3
2016-Jun-28 01:33N 09°16' W 079°55'0 0.4
2016-Jun-28 00:33N 09°17' W 079°55'3 3.0
2016-Jun-27 23:33N 09°20' W 079°55'3 2.7
2016-Jun-27 22:32N 09°22' W 079°56'0 0.0
2016-Jun-27 21:31N 09°22' W 079°56'0 0.0
2016-Jun-27 20:31N 09°22' W 079°56'0 0.0
2016-Jun-27 19:26N 09°22' W 079°56'0 0.0
2016-Jun-27 18:32N 09°22' W 079°56'0 0.0
2016-Jun-27 17:32N 09°22' W 079°56'0 0.0
2016-Jun-27 16:31N 09°22' W 079°56'0 0.0
2016-Jun-27 15:31N 09°22' W 079°56'0 0.0
2016-Jun-27 14:31N 09°22' W 079°56'3 2.7
2016-Jun-27 13:33N 09°25' W 079°55'1 1.4
2016-Jun-27 12:33N 09°25' W 079°56'0 0.0
2016-Jun-27 11:30N 09°25' W 079°56'0 0.0
2016-Jun-27 10:17N 09°25' W 079°56'0 0.0
2016-Jun-27 09:32N 09°25' W 079°56'0 0.0
2016-Jun-27 08:29N 09°25' W 079°56'0 0.0
2016-Jun-27 07:29N 09°25' W 079°56'0 0.0
2016-Jun-27 06:23N 09°25' W 079°56'0 0.1
2016-Jun-27 05:33N 09°25' W 079°56'0 0.0
2016-Jun-27 04:33N 09°25' W 079°56'0 0.0
2016-Jun-27 03:30N 09°25' W 079°56'0 0.0
2016-Jun-27 02:32N 09°25' W 079°56'0 0.0
2016-Jun-27 01:31N 09°25' W 079°56'0 0.0
2016-Jun-27 00:33N 09°25' W 079°56'0 0.0
2016-Jun-26 23:33N 09°25' W 079°56'0 0.0
2016-Jun-26 22:31N 09°25' W 079°56'0 0.0
2016-Jun-26 20:20N 09°25' W 079°56'0 0.1
2016-Jun-26 19:33N 09°25' W 079°56'0 0.0
2016-Jun-26 18:33N 09°25' W 079°56'0 0.0
2016-Jun-26 17:24N 09°25' W 079°56'0 0.0
2016-Jun-26 16:29N 09°25' W 079°56'0 0.0
2016-Jun-26 15:33N 09°25' W 079°57'0 0.1
2016-Jun-26 14:33N 09°25' W 079°56'0 0.0
2016-Jun-26 13:24N 09°25' W 079°56'0 0.0
2016-Jun-26 12:33N 09°25' W 079°56'0 0.0
2016-Jun-26 11:30N 09°25' W 079°56'0 0.0
2016-Jun-26 10:27N 09°25' W 079°56'0 0.0
2016-Jun-26 09:30N 09°25' W 079°56'0 0.0
2016-Jun-26 08:32N 09°25' W 079°56'0 0.0
2016-Jun-26 07:30N 09°25' W 079°56'0 0.0
2016-Jun-26 06:33N 09°25' W 079°56'0 0.0
2016-Jun-26 05:32N 09°25' W 079°56'0 0.0
2016-Jun-26 04:33N 09°25' W 079°56'0 0.1
2016-Jun-26 03:32N 09°25' W 079°56'0 0.1
2016-Jun-26 02:30N 09°25' W 079°56'0 0.0
2016-Jun-26 01:32N 09°25' W 079°56'0 0.0
2016-Jun-26 00:32N 09°25' W 079°56'0 0.0
2016-Jun-25 23:32N 09°25' W 079°56'0 0.0
2016-Jun-25 22:33N 09°25' W 079°56'0 0.0
2016-Jun-25 21:32N 09°25' W 079°56'0 0.0
2016-Jun-25 20:32N 09°25' W 079°56'0 0.0
2016-Jun-25 19:30N 09°25' W 079°56'0 0.0
2016-Jun-25 18:30N 09°25' W 079°56'0 0.0
2016-Jun-25 17:24N 09°25' W 079°56'2 2.6
2016-Jun-25 16:34N 09°27' W 079°55'9 9.0
2016-Jun-25 15:33N 09°35' W 079°53'1110.9
2016-Jun-25 14:33N 09°46' W 079°53'  
2016-Jun-19 21:32N 29°46' W 090°02'10 9.8
2016-Jun-19 20:33N 29°53' W 089°54'9 8.9
2016-Jun-19 19:33N 29°55' W 090°04'8 8.1
2016-Jun-19 18:31N 29°57' W 090°13'13 0.9
2016-Jun-19 03:15N 30°00' W 090°28'  

Dump ship's entire track history